Change the Weather History Date:

Tuesday, October 9, 2012

  Actual Average Record
Temperature  
Mean Temperature 42 °F -  
Max Temperature 51 °F 59 °F 86 °F (2010)
Min Temperature 33 °F 39 °F 23 °F (2000)
Degree Days  
Heating Degree Days 23    
Moisture  
Dew Point 33 °F    
Average Humidity 64    
Maximum Humidity 93    
Minimum Humidity 38    
Precipitation  
Precipitation 0.00 in - - ()
Sea Level Pressure  
Sea Level Pressure 29.88 in    
Wind  
Wind Speed 10 mph (WNW)    
Max Wind Speed 26 mph    
Max Gust Speed 37 mph    
Visibility 10 miles    
Events      
Averages and records for this station are not official NWS values.
T = Trace of Precipitation, MM = Missing Value Source: NWS Daily Summary

Daily Weather History Graph

Daily Weather History Graph

Search for Another Location

Airport or City:

Trip Planner

Search our weather history database for the weather conditions in past years. The results will help you decide how hot, cold, wet, or windy it might be!

Date:

Astronomy

Oct. 09, 2012 Rise Set
Actual Time 7:25 AM CDT 6:43 PM CDT
Civil Twilight 6:56 AM CDT 7:12 PM CDT
Nautical Twilight 6:23 AM CDT 7:45 PM CDT
Astronomical Twilight 5:49 AM CDT 8:18 PM CDT
Moon 12:51 AM CDT (10/9) 3:21 PM CDT (10/9)
Length of Visible Light 12h 15m
Length of Day
11h 18m
Last Quarter, 36% of the Moon is Illuminated
Oct 9
Last Quarter
Oct 15
New
Oct 21
First Quarter
Oct 29
Full
Nov 6
Last Quarter

Hourly Weather History & Observations

Time (CDT) Temp. Windchill Dew Point Humidity Pressure Visibility Wind Dir Wind Speed Gust Speed Precip Events Conditions
12:15 AM 50.0 °F - 44.6 °F 82% 29.78 in 10.0 mi SSW 3.5 mph - N/A   Mostly Cloudy
12:35 AM 48.2 °F - 44.6 °F 87% 29.78 in 10.0 mi SSW 3.5 mph - N/A   Mostly Cloudy
12:55 AM 48.2 °F - 44.6 °F 87% 29.77 in 10.0 mi SSW 3.5 mph - N/A   Overcast
1:15 AM 46.4 °F - 42.8 °F 87% 29.77 in 10.0 mi Calm Calm - N/A   Mostly Cloudy
1:55 AM 46.4 °F 43.5 °F 42.8 °F 87% 29.76 in 10.0 mi South 5.8 mph - N/A   Overcast
2:15 AM 46.4 °F 43.5 °F 44.6 °F 93% 29.77 in 10.0 mi SW 5.8 mph - N/A   Overcast
2:55 AM 48.2 °F - 44.6 °F 87% 29.77 in 10.0 mi WSW 6.9 mph - N/A   Overcast
3:15 AM 50.0 °F - 44.6 °F 82% 29.77 in 10.0 mi West 8.1 mph - N/A   Overcast
3:35 AM 48.2 °F - 44.6 °F 87% 29.77 in 10.0 mi West 5.8 mph - N/A   Overcast
3:55 AM 50.0 °F - 44.6 °F 82% 29.76 in 10.0 mi WSW 5.8 mph - N/A   Overcast
4:15 AM 50.0 °F - 44.6 °F 82% 29.76 in 10.0 mi SW 4.6 mph - N/A   Overcast
4:35 AM 48.2 °F - 44.6 °F 87% 29.77 in 10.0 mi SSW 5.8 mph - N/A   Overcast
4:55 AM 48.2 °F - 44.6 °F 87% 29.77 in 10.0 mi SW 6.9 mph - N/A   Overcast
5:15 AM 48.2 °F - 44.6 °F 87% 29.77 in 10.0 mi SSW 9.2 mph - N/A   Overcast
5:35 AM 48.2 °F - 44.6 °F 87% 29.77 in 10.0 mi SW 10.4 mph - N/A   Overcast
5:55 AM 48.2 °F - 44.6 °F 87% 29.77 in 10.0 mi SW 9.2 mph - N/A   Overcast
6:15 AM 48.2 °F - 44.6 °F 87% 29.78 in 10.0 mi WSW 9.2 mph - N/A   Overcast
6:35 AM 50.0 °F - 44.6 °F 82% 29.79 in 10.0 mi WSW 8.1 mph - N/A   Overcast
6:55 AM 48.2 °F - 44.6 °F 87% 29.78 in 10.0 mi WSW 8.1 mph - N/A   Overcast
7:15 AM 48.2 °F - 44.6 °F 87% 29.79 in 10.0 mi WSW 11.5 mph - N/A   Overcast
7:35 AM 50.0 °F - 42.8 °F 76% 29.80 in 10.0 mi West 12.7 mph - N/A   Overcast
7:55 AM 48.2 °F - 39.2 °F 71% 29.81 in 10.0 mi NW 18.4 mph 24.2 mph N/A   Overcast
8:15 AM 46.4 °F 40.1 °F 35.6 °F 66% 29.81 in 10.0 mi NW 15.0 mph - N/A   Overcast
8:35 AM 46.4 °F 40.1 °F 35.6 °F 66% 29.83 in 10.0 mi NW 15.0 mph 21.9 mph N/A   Overcast
9:15 AM 44.6 °F 39.7 °F 37.4 °F 76% 29.84 in 10.0 mi NW 9.2 mph - N/A   Overcast
9:35 AM 42.8 °F 37.5 °F 37.4 °F 81% 29.84 in 10.0 mi NW 9.2 mph - N/A   Overcast
10:35 AM 44.6 °F 41.4 °F 37.4 °F 76% 29.85 in 10.0 mi West 5.8 mph - N/A   Overcast
10:55 AM 44.6 °F 40.2 °F 39.2 °F 81% 29.86 in 10.0 mi West 8.1 mph - N/A   Mostly Cloudy
11:15 AM 46.4 °F 41.5 °F 39.2 °F 76% 29.86 in 10.0 mi WNW 10.4 mph - N/A   Partly Cloudy
11:35 AM 46.4 °F 39.2 °F 33.8 °F 62% 29.86 in 10.0 mi WNW 18.4 mph 24.2 mph N/A   Mostly Cloudy
11:55 AM 46.4 °F 38.7 °F 32.0 °F 57% 29.86 in 10.0 mi WNW 20.7 mph - N/A   Scattered Clouds
12:15 PM 46.4 °F 38.7 °F 32.0 °F 57% 29.86 in 10.0 mi WNW 20.7 mph - N/A   Clear
12:35 PM 48.2 °F - 30.2 °F 50% 29.86 in 10.0 mi WNW 18.4 mph - N/A   Clear
12:55 PM 48.2 °F - 30.2 °F 50% 29.86 in 10.0 mi West 19.6 mph - N/A   Partly Cloudy
1:15 PM 48.2 °F - 28.4 °F 46% 29.86 in 10.0 mi West 15.0 mph 25.3 mph N/A   Partly Cloudy
1:35 PM 50.0 °F - 26.6 °F 40% 29.85 in 10.0 mi West 25.3 mph 32.2 mph N/A   Mostly Cloudy
1:55 PM 51.8 °F - 26.6 °F 38% 29.85 in 10.0 mi WNW 26.5 mph 36.8 mph N/A   Overcast
2:15 PM 50.0 °F - 26.6 °F 40% 29.86 in 10.0 mi WNW 26.5 mph 32.2 mph N/A   Overcast
2:35 PM 48.2 °F - 24.8 °F 40% 29.86 in 10.0 mi WNW 26.5 mph 34.5 mph N/A   Mostly Cloudy
2:55 PM 48.2 °F - 24.8 °F 40% 29.87 in 10.0 mi WNW 21.9 mph 29.9 mph N/A   Mostly Cloudy
3:15 PM 48.2 °F - 24.8 °F 40% 29.88 in 10.0 mi NW 20.7 mph 32.2 mph N/A   Mostly Cloudy
3:35 PM 48.2 °F - 24.8 °F 40% 29.89 in 10.0 mi NW 18.4 mph 27.6 mph N/A   Overcast
3:55 PM 48.2 °F - 24.8 °F 40% 29.89 in 10.0 mi WNW 20.7 mph 29.9 mph N/A   Overcast
4:15 PM 46.4 °F 38.3 °F 26.6 °F 46% 29.89 in 10.0 mi WNW 23.0 mph 27.6 mph N/A   Overcast
4:35 PM 46.4 °F 39.0 °F 26.6 °F 46% 29.90 in 10.0 mi WNW 19.6 mph - N/A   Mostly Cloudy
4:55 PM 46.4 °F 38.3 °F 26.6 °F 46% 29.90 in 10.0 mi NW 23.0 mph - N/A   Mostly Cloudy
5:15 PM 46.4 °F 39.0 °F 26.6 °F 46% 29.91 in 10.0 mi NW 19.6 mph 28.8 mph N/A   Overcast
5:35 PM 46.4 °F 39.5 °F 26.6 °F 46% 29.92 in 10.0 mi NW 17.3 mph 31.1 mph N/A   Overcast
5:55 PM 46.4 °F 38.7 °F 26.6 °F 46% 29.93 in 10.0 mi NW 20.7 mph 29.9 mph N/A   Mostly Cloudy
6:15 PM 44.6 °F 36.4 °F 26.6 °F 49% 29.94 in 10.0 mi NW 20.7 mph 31.1 mph N/A   Scattered Clouds
6:35 PM 44.6 °F 36.4 °F 26.6 °F 49% 29.96 in 10.0 mi NW 20.7 mph 27.6 mph N/A   Mostly Cloudy
6:55 PM 44.6 °F 36.4 °F 24.8 °F 46% 29.97 in 10.0 mi NW 20.7 mph - N/A   Overcast
7:15 PM 42.8 °F 34.3 °F 24.8 °F 49% 29.98 in 10.0 mi NW 19.6 mph 25.3 mph N/A   Overcast
7:35 PM 42.8 °F 34.0 °F 24.8 °F 49% 29.99 in 10.0 mi NW 20.7 mph - N/A   Overcast
7:55 PM 42.8 °F 35.1 °F 24.8 °F 49% 29.99 in 10.0 mi NW 16.1 mph 25.3 mph N/A   Mostly Cloudy
8:15 PM 41.0 °F 33.5 °F 24.8 °F 53% 30.00 in 10.0 mi NW 13.8 mph 18.4 mph N/A   Partly Cloudy
8:35 PM 39.2 °F 32.0 °F 24.8 °F 56% 30.01 in 10.0 mi NW 11.5 mph - N/A   Clear
8:55 PM 37.4 °F 29.8 °F 24.8 °F 60% 30.02 in 10.0 mi NW 11.5 mph - N/A   Clear
9:15 PM 37.4 °F 29.3 °F 24.8 °F 60% 30.02 in 10.0 mi NW 12.7 mph - N/A   Clear
9:35 PM 37.4 °F 29.8 °F 23.0 °F 56% 30.03 in 10.0 mi NW 11.5 mph - N/A   Clear
9:55 PM 37.4 °F 30.3 °F 21.2 °F 52% 30.02 in 10.0 mi WNW 10.4 mph - N/A   Clear
10:15 PM 35.6 °F 28.6 °F 21.2 °F 56% 30.03 in 10.0 mi WNW 9.2 mph - N/A   Clear
10:35 PM 35.6 °F 29.9 °F 21.2 °F 56% 30.03 in 10.0 mi WNW 6.9 mph - N/A   Clear
10:55 PM 33.8 °F 27.7 °F 21.2 °F 60% 30.03 in 10.0 mi WNW 6.9 mph - N/A   Partly Cloudy
11:15 PM 35.6 °F 28.6 °F 21.2 °F 56% 30.04 in 10.0 mi WNW 9.2 mph - N/A   Scattered Clouds
11:35 PM 35.6 °F 29.2 °F 21.2 °F 56% 30.04 in 10.0 mi West 8.1 mph - N/A   Mostly Cloudy
11:55 PM 33.8 °F 27.0 °F 21.2 °F 60% 30.04 in 10.0 mi West 8.1 mph - N/A   Scattered Clouds